Time;durP1;ratioP1;P1;durP2;ratioP2;P2;SDS_P1;SDS_P2;PMS_P1;PMS_P2;Temp;Humidity;BMP_temperature;BMP_pressure;BME280_temperature;BME280_humidity;BME280_pressure;Samples;Min_cycle;Max_cycle;Signal;HPM_P1;HPM_P2
2022/10/06 00:02:15;;;;;;;;;;;18.30;98.10;;;;;;5015289;28;19905;-24
2022/10/06 00:04:40;;;;;;;;;;;18.30;98.10;;;;;;5012099;28;19964;-24
2022/10/06 00:07:06;;;;;;;;;;;18.30;98.10;;;;;;5012228;28;19905;-24
2022/10/06 00:09:31;;;;;;;;;;;18.30;98.10;;;;;;5012248;28;20000;-24
2022/10/06 00:11:57;;;;;;;;;;;18.30;98.10;;;;;;5012005;28;19918;-24
2022/10/06 00:14:23;;;;;;;;;;;18.30;98.10;;;;;;5012078;28;20325;-24
2022/10/06 00:16:49;;;;;;;;;;;18.30;98.10;;;;;;5010809;28;19951;-24
2022/10/06 00:19:14;;;;;;;;;;;18.30;98.10;;;;;;5012374;28;19905;-24
2022/10/06 00:21:40;;;;;;;;;;;18.20;98.10;;;;;;5012437;28;19925;-24
2022/10/06 00:24:05;;;;;;;;;;;18.30;98.10;;;;;;5010603;28;19913;-24
2022/10/06 00:26:31;;;;;;;;;;;18.30;98.10;;;;;;5011947;28;19944;-24
2022/10/06 00:28:56;;;;;;;;;;;18.20;98.10;;;;;;5011989;28;19906;-24
2022/10/06 00:31:22;;;;;;;;;;;18.20;98.10;;;;;;5011824;28;20426;-24
2022/10/06 00:33:48;;;;;;;;;;;18.20;98.10;;;;;;5011907;28;20382;-24
2022/10/06 00:36:14;;;;;;;;;;;18.20;98.10;;;;;;5012183;28;20305;-24
2022/10/06 00:38:40;;;;;;;;;;;18.20;98.10;;;;;;5011892;28;19906;-24
2022/10/06 00:41:05;;;;;;;;;;;18.20;98.10;;;;;;5011820;28;19916;-24
2022/10/06 00:43:50;;;;;;;;;;;18.20;98.10;;;;;;5011108;28;20374;-24
2022/10/06 00:46:16;;;;;;;;;;;18.20;98.10;;;;;;5012170;28;20324;-24
2022/10/06 00:48:42;;;;;;;;;;;18.20;98.10;;;;;;5014259;28;19906;-24
2022/10/06 00:51:08;;;;;;;;;;;18.20;98.10;;;;;;5016433;28;19905;-24
2022/10/06 00:53:34;;;;;;;;;;;18.20;98.10;;;;;;5016004;28;20323;-23
2022/10/06 00:55:59;;;;;;;;;;;18.20;98.10;;;;;;5015737;28;19948;-24
2022/10/06 00:58:25;;;;;;;;;;;18.20;98.10;;;;;;5015616;28;19909;-24
2022/10/06 01:00:54;;;;;;;;;;;18.20;98.10;;;;;;5015785;28;20380;-23
2022/10/06 01:03:22;;;;;;;;;;;18.20;98.10;;;;;;5015816;28;20362;-24
2022/10/06 01:05:50;;;;;;;;;;;18.20;98.10;;;;;;5016144;28;19905;-23
2022/10/06 01:08:15;;;;;;;;;;;18.20;98.10;;;;;;5014200;28;19909;-24
2022/10/06 01:10:41;;;;;;;;;;;18.20;98.10;;;;;;5015721;28;20286;-24
2022/10/06 01:13:09;;;;;;;;;;;18.20;98.10;;;;;;5015210;28;19992;-24
2022/10/06 01:15:38;;;;;;;;;;;18.20;98.10;;;;;;5015363;28;19905;-24
2022/10/06 01:18:06;;;;;;;;;;;18.20;98.10;;;;;;5015829;28;19909;-24
2022/10/06 01:20:33;;;;;;;;;;;18.20;98.10;;;;;;4997521;28;19905;-24
2022/10/06 01:23:00;;;;;;;;;;;18.20;98.10;;;;;;5013660;28;19956;-23
2022/10/06 01:25:27;;;;;;;;;;;18.20;98.10;;;;;;5015274;28;19967;-23
2022/10/06 01:27:53;;;;;;;;;;;18.20;98.10;;;;;;5015176;28;20300;-24
2022/10/06 01:30:25;;;;;;;;;;;18.20;98.10;;;;;;5015111;28;19905;-23
2022/10/06 01:32:51;;;;;;;;;;;18.20;98.00;;;;;;5014950;28;19911;-24
2022/10/06 01:35:16;;;;;;;;;;;18.20;98.00;;;;;;5015084;28;19909;-24
2022/10/06 01:37:42;;;;;;;;;;;18.20;98.00;;;;;;5015321;28;20000;-24
2022/10/06 01:40:08;;;;;;;;;;;18.20;98.00;;;;;;5015189;28;19905;-24
2022/10/06 01:42:34;;;;;;;;;;;18.20;98.00;;;;;;5014497;28;20359;-24
2022/10/06 01:45:00;;;;;;;;;;;18.20;98.00;;;;;;5014873;28;19945;-24
2022/10/06 01:47:26;;;;;;;;;;;18.10;98.00;;;;;;5015917;28;20290;-24
2022/10/06 01:49:51;;;;;;;;;;;18.10;98.00;;;;;;5015895;28;19909;-24
2022/10/06 01:52:18;;;;;;;;;;;18.10;98.00;;;;;;5015684;28;20015;-24
2022/10/06 01:54:43;;;;;;;;;;;18.10;98.00;;;;;;5014907;28;20274;-24
2022/10/06 01:57:09;;;;;;;;;;;18.10;98.00;;;;;;5014623;28;19905;-24
2022/10/06 01:59:34;;;;;;;;;;;18.10;98.00;;;;;;5014377;28;19937;-24
2022/10/06 02:02:00;;;;;;;;;;;18.10;98.00;;;;;;5014945;28;19912;-24
2022/10/06 02:04:25;;;;;;;;;;;18.10;98.00;;;;;;5014287;28;20367;-24
2022/10/06 02:06:51;;;;;;;;;;;18.10;98.00;;;;;;5015134;28;19996;-24
2022/10/06 02:09:17;;;;;;;;;;;18.10;98.00;;;;;;5014575;28;19912;-24
2022/10/06 02:11:42;;;;;;;;;;;18.10;98.00;;;;;;5014717;28;20282;-24
2022/10/06 02:14:08;;;;;;;;;;;18.10;98.00;;;;;;5014196;28;20506;-24
2022/10/06 02:16:34;;;;;;;;;;;18.10;97.90;;;;;;5014934;28;19910;-24
2022/10/06 02:19:00;;;;;;;;;;;18.10;98.00;;;;;;5012882;28;19909;-24
2022/10/06 02:21:25;;;;;;;;;;;18.10;97.90;;;;;;5014043;28;19915;-24
2022/10/06 02:23:51;;;;;;;;;;;18.10;97.90;;;;;;5013619;28;19963;-24
2022/10/06 02:26:17;;;;;;;;;;;18.10;97.90;;;;;;5014117;28;20185;-24
2022/10/06 02:28:43;;;;;;;;;;;18.10;97.90;;;;;;5013944;28;20432;-24
2022/10/06 02:31:09;;;;;;;;;;;18.10;97.90;;;;;;5013974;28;20313;-24
2022/10/06 02:33:35;;;;;;;;;;;18.10;97.80;;;;;;5013701;28;19917;-24
2022/10/06 02:36:01;;;;;;;;;;;18.00;97.80;;;;;;5013892;28;19912;-24
2022/10/06 02:38:27;;;;;;;;;;;18.00;97.80;;;;;;5013624;28;19909;-24
2022/10/06 02:40:52;;;;;;;;;;;18.10;97.80;;;;;;5013782;28;19913;-24
2022/10/06 02:43:19;;;;;;;;;;;18.00;97.80;;;;;;5013486;28;20377;-24
2022/10/06 02:45:54;;;;;;;;;;;18.10;97.80;;;;;;5013758;28;19912;-24
2022/10/06 02:48:20;;;;;;;;;;;18.00;97.80;;;;;;5013794;28;19906;-24
2022/10/06 02:50:51;;;;;;;;;;;18.00;97.80;;;;;;5014240;28;19920;-24
2022/10/06 02:53:17;;;;;;;;;;;18.00;97.80;;;;;;5013557;28;19995;-24
2022/10/06 02:55:43;;;;;;;;;;;18.00;97.80;;;;;;5014319;28;20343;-24
2022/10/06 02:58:10;;;;;;;;;;;18.00;97.80;;;;;;5013470;28;19941;-24
2022/10/06 03:00:35;;;;;;;;;;;18.00;97.80;;;;;;5013399;28;19905;-24
2022/10/06 03:03:01;;;;;;;;;;;18.00;97.80;;;;;;5013378;28;19916;-24
2022/10/06 03:05:26;;;;;;;;;;;18.00;97.80;;;;;;5013508;28;20004;-24
2022/10/06 03:07:52;;;;;;;;;;;18.00;97.80;;;;;;5012469;28;19956;-24
2022/10/06 03:10:17;;;;;;;;;;;18.00;97.80;;;;;;5012497;28;20370;-24
2022/10/06 03:12:43;;;;;;;;;;;18.00;97.80;;;;;;5013390;28;19912;-23
2022/10/06 03:15:09;;;;;;;;;;;18.00;97.70;;;;;;5014312;28;19912;-24
2022/10/06 03:17:34;;;;;;;;;;;18.00;97.70;;;;;;5015340;28;19960;-24
2022/10/06 03:19:59;;;;;;;;;;;17.90;97.70;;;;;;5015205;28;19912;-24
2022/10/06 03:22:25;;;;;;;;;;;17.90;97.70;;;;;;5012710;28;20406;-24
2022/10/06 03:24:50;;;;;;;;;;;18.00;97.80;;;;;;5012769;28;19968;-24
2022/10/06 03:27:16;;;;;;;;;;;17.90;97.70;;;;;;5013199;28;19905;-24
2022/10/06 03:29:41;;;;;;;;;;;17.90;97.70;;;;;;5013785;28;19993;-24
2022/10/06 03:32:07;;;;;;;;;;;17.90;97.80;;;;;;5013972;28;20278;-24
2022/10/06 03:34:32;;;;;;;;;;;17.90;97.80;;;;;;5012633;28;19913;-24
2022/10/06 03:36:58;;;;;;;;;;;17.90;97.80;;;;;;5012909;28;19909;-24
2022/10/06 03:39:23;;;;;;;;;;;17.90;97.70;;;;;;5011721;28;20434;-24
2022/10/06 03:41:49;;;;;;;;;;;17.90;97.70;;;;;;5012238;28;19951;-24
2022/10/06 03:44:15;;;;;;;;;;;17.90;97.80;;;;;;5012373;28;19909;-24
2022/10/06 03:46:40;;;;;;;;;;;17.90;97.70;;;;;;5012700;28;19981;-24
2022/10/06 03:49:06;;;;;;;;;;;17.90;97.80;;;;;;5012691;28;19957;-24
2022/10/06 03:51:33;;;;;;;;;;;17.80;97.70;;;;;;5011135;28;19917;-24
2022/10/06 03:53:59;;;;;;;;;;;17.90;97.80;;;;;;5012273;28;19915;-24
2022/10/06 03:56:27;;;;;;;;;;;17.80;97.80;;;;;;5012456;28;20287;-24
2022/10/06 03:58:53;;;;;;;;;;;17.80;97.80;;;;;;5012402;28;19905;-24
2022/10/06 04:01:20;;;;;;;;;;;17.80;97.80;;;;;;5012754;28;20515;-24
2022/10/06 04:03:46;;;;;;;;;;;17.80;97.70;;;;;;5012551;28;20298;-24
2022/10/06 04:06:16;;;;;;;;;;;17.80;98.10;;;;;;5012849;28;19905;-23
2022/10/06 04:08:43;;;;;;;;;;;17.80;97.80;;;;;;5013046;28;19905;-24
2022/10/06 04:11:14;;;;;;;;;;;17.80;97.80;;;;;;5010762;28;19913;-24
2022/10/06 04:13:40;;;;;;;;;;;17.80;97.70;;;;;;5011965;28;19993;-24
2022/10/06 04:16:09;;;;;;;;;;;17.70;97.70;;;;;;5012602;28;19913;-23
2022/10/06 04:18:35;;;;;;;;;;;17.70;97.70;;;;;;5012884;28;19937;-23
2022/10/06 04:21:00;;;;;;;;;;;17.80;97.80;;;;;;5012361;28;19948;-24
2022/10/06 04:23:26;;;;;;;;;;;17.70;97.70;;;;;;5012514;28;19909;-24
2022/10/06 04:26:01;;;;;;;;;;;17.70;97.70;;;;;;5012166;28;19912;-24
2022/10/06 04:28:27;;;;;;;;;;;17.70;97.70;;;;;;5012086;28;19905;-24
2022/10/06 04:30:56;;;;;;;;;;;17.70;97.70;;;;;;5012623;28;19984;-24
2022/10/06 04:33:22;;;;;;;;;;;17.70;97.70;;;;;;5012151;28;19909;-24
2022/10/06 04:35:55;;;;;;;;;;;17.70;97.70;;;;;;5012380;28;20008;-23
2022/10/06 04:38:20;;;;;;;;;;;17.70;97.70;;;;;;5012087;28;19912;-24
2022/10/06 04:40:46;;;;;;;;;;;17.70;97.70;;;;;;5012189;28;19913;-24
2022/10/06 04:43:12;;;;;;;;;;;17.70;97.70;;;;;;5012428;28;19913;-23
2022/10/06 04:45:37;;;;;;;;;;;17.70;97.70;;;;;;5012419;28;19909;-23
2022/10/06 04:48:03;;;;;;;;;;;17.70;97.70;;;;;;5012180;28;20374;-23
2022/10/06 04:50:28;;;;;;;;;;;17.70;97.70;;;;;;5011873;28;20377;-24
2022/10/06 04:52:54;;;;;;;;;;;17.70;97.70;;;;;;5011125;28;20012;-24
2022/10/06 04:55:20;;;;;;;;;;;17.70;97.70;;;;;;5012397;28;20261;-24
2022/10/06 04:57:45;;;;;;;;;;;17.70;97.60;;;;;;5011833;28;19909;-23
2022/10/06 05:00:24;;;;;;;;;;;17.70;97.60;;;;;;5011714;28;19905;-23
2022/10/06 05:02:53;;;;;;;;;;;17.70;97.70;;;;;;5011651;28;19912;-23
2022/10/06 05:05:18;;;;;;;;;;;17.70;97.70;;;;;;5011707;28;19920;-23
2022/10/06 05:07:44;;;;;;;;;;;17.60;97.60;;;;;;5011801;28;19905;-24
2022/10/06 05:10:10;;;;;;;;;;;17.60;97.60;;;;;;5012238;28;19905;-24
2022/10/06 05:12:36;;;;;;;;;;;17.70;97.70;;;;;;5011287;28;20387;-23
2022/10/06 05:15:01;;;;;;;;;;;17.70;97.70;;;;;;5012385;28;20370;-23
2022/10/06 05:17:27;;;;;;;;;;;17.70;97.70;;;;;;5012061;28;20003;-23
2022/10/06 05:19:52;;;;;;;;;;;17.60;97.60;;;;;;5011607;28;19909;-24
2022/10/06 05:22:18;;;;;;;;;;;17.60;97.60;;;;;;5011696;28;19979;-24
2022/10/06 05:24:43;;;;;;;;;;;17.60;97.60;;;;;;5011415;28;19913;-24
2022/10/06 05:27:09;;;;;;;;;;;17.60;97.60;;;;;;5011317;28;19910;-24
2022/10/06 05:29:35;;;;;;;;;;;17.70;97.70;;;;;;5011534;28;20019;-24
2022/10/06 05:32:00;;;;;;;;;;;17.60;97.60;;;;;;5011471;28;19909;-24
2022/10/06 05:34:26;;;;;;;;;;;17.70;97.60;;;;;;5012052;28;19909;-24
2022/10/06 05:36:51;;;;;;;;;;;17.60;97.60;;;;;;5015200;28;19905;-24
2022/10/06 05:39:17;;;;;;;;;;;17.60;97.70;;;;;;5015439;28;20262;-23
2022/10/06 05:41:42;;;;;;;;;;;17.60;97.60;;;;;;5015261;28;19905;-24
2022/10/06 05:44:08;;;;;;;;;;;17.60;97.70;;;;;;5015289;28;19916;-24
2022/10/06 05:46:34;;;;;;;;;;;17.60;97.70;;;;;;5014813;28;19906;-24
2022/10/06 05:49:01;;;;;;;;;;;17.60;97.60;;;;;;5014652;28;19906;-23
2022/10/06 05:51:28;;;;;;;;;;;17.60;97.70;;;;;;5015018;28;19988;-23
2022/10/06 05:53:53;;;;;;;;;;;17.50;97.70;;;;;;5014513;28;19968;-24
2022/10/06 05:56:26;;;;;;;;;;;17.60;97.70;;;;;;5014592;28;19905;-23
2022/10/06 05:58:53;;;;;;;;;;;17.50;97.70;;;;;;5014588;28;19909;-24
2022/10/06 06:01:22;;;;;;;;;;;17.50;97.70;;;;;;5014777;28;20433;-24
2022/10/06 06:03:48;;;;;;;;;;;17.50;97.70;;;;;;5014387;28;19917;-24
2022/10/06 06:06:16;;;;;;;;;;;17.50;97.70;;;;;;5014616;28;19937;-24
2022/10/06 06:08:42;;;;;;;;;;;17.60;97.80;;;;;;5014454;28;19955;-24
2022/10/06 06:11:07;;;;;;;;;;;17.50;97.70;;;;;;5014114;28;19945;-24
2022/10/06 06:13:34;;;;;;;;;;;17.50;97.70;;;;;;5014048;28;20315;-24
2022/10/06 06:16:00;;;;;;;;;;;17.50;97.70;;;;;;5014437;28;20370;-24
2022/10/06 06:18:29;;;;;;;;;;;17.50;97.70;;;;;;5014051;28;20374;-24
2022/10/06 06:20:58;;;;;;;;;;;17.50;97.70;;;;;;5014157;28;20005;-24
2022/10/06 06:23:24;;;;;;;;;;;17.50;97.70;;;;;;5013908;28;19964;-24
2022/10/06 06:26:00;;;;;;;;;;;17.50;97.70;;;;;;5014311;28;20282;-24
2022/10/06 06:28:27;;;;;;;;;;;17.50;97.80;;;;;;5014109;28;19967;-24
2022/10/06 06:31:01;;;;;;;;;;;17.50;97.80;;;;;;5014022;28;19952;-24
2022/10/06 06:33:27;;;;;;;;;;;17.50;97.80;;;;;;5014379;28;19913;-24
2022/10/06 06:35:52;;;;;;;;;;;17.50;97.80;;;;;;5013867;28;20445;-24
2022/10/06 06:38:18;;;;;;;;;;;17.50;97.80;;;;;;5013860;28;20009;-24
2022/10/06 06:40:43;;;;;;;;;;;17.50;97.80;;;;;;5013677;28;19912;-24
2022/10/06 06:43:11;;;;;;;;;;;17.50;97.80;;;;;;5013465;28;19909;-24
2022/10/06 06:45:36;;;;;;;;;;;17.40;97.80;;;;;;5011223;28;19937;-24
2022/10/06 06:48:03;;;;;;;;;;;17.50;97.90;;;;;;5013587;28;20339;-24
2022/10/06 06:50:28;;;;;;;;;;;17.40;97.90;;;;;;5013444;28;20259;-24
2022/10/06 06:52:54;;;;;;;;;;;17.40;97.90;;;;;;5013410;28;19968;-24
2022/10/06 06:55:20;;;;;;;;;;;17.50;97.90;;;;;;5013487;28;19933;-24
2022/10/06 06:57:45;;;;;;;;;;;17.50;97.90;;;;;;5013564;28;20351;-24
2022/10/06 07:00:11;;;;;;;;;;;17.40;97.90;;;;;;5013367;28;19912;-24
2022/10/06 07:02:37;;;;;;;;;;;17.40;97.90;;;;;;5013024;28;19968;-24
2022/10/06 07:05:03;;;;;;;;;;;17.40;98.00;;;;;;5013130;28;20259;-24
2022/10/06 07:07:28;;;;;;;;;;;17.40;98.00;;;;;;5013099;28;20346;-24
2022/10/06 07:09:54;;;;;;;;;;;17.40;98.00;;;;;;5013306;28;19916;-24
2022/10/06 07:12:19;;;;;;;;;;;17.40;98.00;;;;;;5014814;28;19917;-24
2022/10/06 07:25:41;;;;;;;;;;;16.70;99.40;;;;;;5013087;28;20433;-23
2022/10/06 07:28:10;;;;;;;;;;;16.80;99.30;;;;;;5012750;28;19905;-24
2022/10/06 07:30:37;;;;;;;;;;;16.90;99.30;;;;;;5012768;28;19953;-24
2022/10/06 07:33:03;;;;;;;;;;;17.00;99.20;;;;;;5012677;28;20016;-24
2022/10/06 07:35:29;;;;;;;;;;;17.10;99.10;;;;;;5012760;28;19916;-24
2022/10/06 07:37:56;;;;;;;;;;;17.10;99.30;;;;;;5012739;28;19909;-24
2022/10/06 07:40:22;;;;;;;;;;;17.10;98.90;;;;;;5012610;28;19936;-24
2022/10/06 07:42:48;;;;;;;;;;;17.20;98.80;;;;;;5012499;28;19964;-23
2022/10/06 07:47:59;;;;;;;;;;;17.20;98.80;;;;;;5012977;28;19952;-24
2022/10/06 07:50:24;;;;;;;;;;;17.20;98.70;;;;;;5012517;28;19905;-23
2022/10/06 07:52:50;;;;;;;;;;;17.20;98.70;;;;;;5012291;28;19911;-23
2022/10/06 07:55:16;;;;;;;;;;;17.30;98.70;;;;;;5012317;28;19915;-23
2022/10/06 07:57:44;;;;;;;;;;;17.30;98.70;;;;;;5012060;28;20290;-23
2022/10/06 08:00:11;;;;;;;;;;;17.30;98.70;;;;;;5012398;28;19905;-23
2022/10/06 08:02:38;;;;;;;;;;;17.30;98.70;;;;;;5012060;28;19916;-24
2022/10/06 08:05:04;;;;;;;;;;;17.30;98.70;;;;;;5012256;28;19909;-23
2022/10/06 08:07:30;;;;;;;;;;;17.30;98.70;;;;;;5012211;28;20375;-23
2022/10/06 08:09:55;;;;;;;;;;;17.30;98.70;;;;;;5012222;28;19913;-23
2022/10/06 08:12:33;;;;;;;;;;;17.30;98.70;;;;;;5012200;28;19913;-24
2022/10/06 08:15:02;;;;;;;;;;;17.30;98.60;;;;;;5012214;28;19972;-24
2022/10/06 08:17:31;;;;;;;;;;;17.40;98.60;;;;;;5012485;28;19916;-23
2022/10/06 08:19:56;;;;;;;;;;;17.40;98.60;;;;;;5012191;28;20047;-23
2022/10/06 08:22:26;;;;;;;;;;;17.30;98.50;;;;;;5011911;28;19999;-23
2022/10/06 08:24:53;;;;;;;;;;;17.30;98.50;;;;;;5011990;28;19909;-23
2022/10/06 08:27:19;;;;;;;;;;;17.40;98.50;;;;;;5012001;28;19992;-24
2022/10/06 08:29:44;;;;;;;;;;;17.40;98.50;;;;;;5011982;28;19944;-23
2022/10/06 08:32:09;;;;;;;;;;;17.40;98.50;;;;;;5011943;28;20355;-23
2022/10/06 08:34:35;;;;;;;;;;;17.40;98.60;;;;;;5011736;28;19905;-23
2022/10/06 08:37:02;;;;;;;;;;;17.30;98.50;;;;;;5012010;28;19975;-24
2022/10/06 08:39:29;;;;;;;;;;;17.30;98.50;;;;;;5010612;28;19913;-24
2022/10/06 08:41:56;;;;;;;;;;;17.30;98.60;;;;;;5011905;28;19963;-23
2022/10/06 08:44:43;;;;;;;;;;;17.30;98.60;;;;;;5011642;28;20282;-24
2022/10/06 08:47:12;;;;;;;;;;;17.30;98.60;;;;;;5011887;28;19948;-23
2022/10/06 08:49:39;;;;;;;;;;;17.30;98.60;;;;;;5011921;28;20274;-23
2022/10/06 08:52:25;;;;;;;;;;;17.30;98.60;;;;;;5012008;28;20278;-24
2022/10/06 08:55:06;;;;;;;;;;;17.30;98.60;;;;;;5011759;28;19909;-23
2022/10/06 08:57:40;;;;;;;;;;;17.40;98.60;;;;;;5011706;28;19906;-23
2022/10/06 09:00:12;;;;;;;;;;;17.40;98.60;;;;;;5011719;28;20326;-23
2022/10/06 09:02:41;;;;;;;;;;;17.40;98.60;;;;;;5011410;28;19909;-23
2022/10/06 09:05:07;;;;;;;;;;;17.40;98.50;;;;;;5011735;28;19917;-23
2022/10/06 09:07:33;;;;;;;;;;;17.50;98.50;;;;;;5011709;28;20283;-23
2022/10/06 09:09:58;;;;;;;;;;;17.50;98.50;;;;;;5013251;28;19905;-23
2022/10/06 09:12:28;;;;;;;;;;;17.50;98.40;;;;;;5015029;28;20001;-23
2022/10/06 09:15:05;;;;;;;;;;;17.60;98.30;;;;;;5015408;28;19909;-23
2022/10/06 09:17:34;;;;;;;;;;;17.60;98.30;;;;;;5015401;28;20359;-23
2022/10/06 09:20:09;;;;;;;;;;;17.70;98.20;;;;;;5015319;28;19905;-22
2022/10/06 09:22:35;;;;;;;;;;;17.70;98.10;;;;;;5014977;28;19947;-23
2022/10/06 09:25:13;;;;;;;;;;;17.80;98.10;;;;;;5015347;28;20339;-23
2022/10/06 09:27:40;;;;;;;;;;;17.80;98.00;;;;;;5013775;28;19912;-23
2022/10/06 09:30:10;;;;;;;;;;;17.90;98.00;;;;;;5015047;28;19905;-23
2022/10/06 09:32:37;;;;;;;;;;;17.90;97.90;;;;;;5014838;28;20283;-23
2022/10/06 09:35:14;;;;;;;;;;;17.90;97.90;;;;;;5015032;28;19916;-23
2022/10/06 09:37:56;;;;;;;;;;;18.00;97.90;;;;;;5014993;28;19906;-23
2022/10/06 09:40:43;;;;;;;;;;;18.00;97.80;;;;;;5014940;28;19936;-23
2022/10/06 09:43:17;;;;;;;;;;;18.00;97.70;;;;;;5014678;28;19909;-23
2022/10/06 09:45:43;;;;;;;;;;;18.10;97.80;;;;;;5014855;28;19909;-23
2022/10/06 09:48:19;;;;;;;;;;;18.10;97.70;;;;;;5015844;28;20347;-23
2022/10/06 09:51:04;;;;;;;;;;;18.20;97.70;;;;;;5020239;28;19992;-23
2022/10/06 09:53:30;;;;;;;;;;;18.20;97.70;;;;;;5014653;28;19909;-23
2022/10/06 09:55:56;;;;;;;;;;;18.20;97.60;;;;;;5014900;28;19968;-23
2022/10/06 09:58:32;;;;;;;;;;;18.20;97.60;;;;;;5014579;28;20350;-23
2022/10/06 10:00:59;;;;;;;;;;;18.20;97.60;;;;;;5013286;28;19940;-23
2022/10/06 10:03:25;;;;;;;;;;;18.20;97.60;;;;;;5014307;28;19917;-23
2022/10/06 10:05:53;;;;;;;;;;;18.20;97.60;;;;;;5014435;28;19905;-23
2022/10/06 10:08:26;;;;;;;;;;;18.20;97.60;;;;;;5014498;28;19967;-23
2022/10/06 10:13:59;;;;;;;;;;;18.10;97.70;;;;;;5014486;28;20003;-23
2022/10/06 10:16:33;;;;;;;;;;;18.10;97.80;;;;;;5014282;28;19912;-23
2022/10/06 10:18:59;;;;;;;;;;;18.10;97.80;;;;;;5014826;28;20300;-23
2022/10/06 10:21:28;;;;;;;;;;;18.10;97.80;;;;;;5014105;28;19906;-23
2022/10/06 10:23:57;;;;;;;;;;;18.10;97.90;;;;;;5012456;28;20016;-23
2022/10/06 10:26:38;;;;;;;;;;;18.00;97.90;;;;;;5014096;28;19959;-23
2022/10/06 10:29:29;;;;;;;;;;;18.00;97.90;;;;;;5013937;28;19909;-23
2022/10/06 10:32:10;;;;;;;;;;;18.00;98.00;;;;;;5013825;28;19952;-23
2022/10/06 10:34:54;;;;;;;;;;;18.00;98.00;;;;;;5013914;28;19941;-22
2022/10/06 10:37:23;;;;;;;;;;;18.00;97.90;;;;;;5013996;28;19940;-23
2022/10/06 10:39:54;;;;;;;;;;;18.10;97.90;;;;;;5013764;28;19909;-23
2022/10/06 10:42:27;;;;;;;;;;;18.10;97.90;;;;;;5013788;28;19913;-23
2022/10/06 10:44:58;;;;;;;;;;;18.20;97.90;;;;;;5012411;28;20339;-23
2022/10/06 10:47:26;;;;;;;;;;;18.20;97.80;;;;;;5013732;28;20014;-23
2022/10/06 10:50:06;;;;;;;;;;;18.20;97.80;;;;;;5013627;28;19909;-23
2022/10/06 10:52:34;;;;;;;;;;;18.20;97.80;;;;;;5013439;28;20252;-23
2022/10/06 10:55:10;;;;;;;;;;;18.20;97.80;;;;;;5013611;28;19906;-23
2022/10/06 10:57:39;;;;;;;;;;;18.20;97.80;;;;;;5013424;28;20355;-23
2022/10/06 11:00:06;;;;;;;;;;;18.20;97.90;;;;;;5013389;28;20378;-24
2022/10/06 11:02:34;;;;;;;;;;;18.20;97.90;;;;;;5013053;28;19909;-24
2022/10/06 11:05:11;;;;;;;;;;;18.20;97.90;;;;;;5013266;28;20341;-23
2022/10/06 11:07:52;;;;;;;;;;;18.20;97.80;;;;;;5013281;28;19916;-23
2022/10/06 11:10:19;;;;;;;;;;;18.20;97.80;;;;;;5013349;28;19906;-23
2022/10/06 11:12:48;;;;;;;;;;;18.20;97.80;;;;;;5013057;28;20344;-23
2022/10/06 11:15:32;;;;;;;;;;;18.20;97.80;;;;;;5013325;28;20290;-23
2022/10/06 11:18:03;;;;;;;;;;;18.20;97.80;;;;;;5011647;28;19977;-23
2022/10/06 11:20:29;;;;;;;;;;;18.20;97.80;;;;;;5013021;28;19954;-23
2022/10/06 11:23:13;;;;;;;;;;;18.20;97.70;;;;;;5012875;28;19944;-23
2022/10/06 11:25:45;;;;;;;;;;;18.30;97.70;;;;;;5012861;28;19924;-23
2022/10/06 11:28:15;;;;;;;;;;;18.30;97.70;;;;;;5013029;28;20061;-23
2022/10/06 11:30:56;;;;;;;;;;;18.40;97.70;;;;;;5012846;28;19906;-23
2022/10/06 11:33:28;;;;;;;;;;;18.40;97.60;;;;;;5012347;28;20172;-23
2022/10/06 11:35:54;;;;;;;;;;;18.40;97.60;;;;;;5012702;28;19905;-24
2022/10/06 11:38:40;;;;;;;;;;;18.40;97.60;;;;;;5012929;28;19916;-23
2022/10/06 11:41:11;;;;;;;;;;;18.50;97.60;;;;;;5012302;28;20422;-23
2022/10/06 11:43:36;;;;;;;;;;;18.50;97.60;;;;;;5012439;28;19914;-23
2022/10/06 11:46:16;;;;;;;;;;;18.50;97.60;;;;;;5012640;28;19960;-23
2022/10/06 11:48:42;;;;;;;;;;;18.50;97.50;;;;;;5012663;28;19920;-23
2022/10/06 11:51:23;;;;;;;;;;;18.60;97.50;;;;;;5012772;28;20005;-23
2022/10/06 11:53:49;;;;;;;;;;;18.60;97.40;;;;;;5012407;28;19945;-23
2022/10/06 11:56:18;;;;;;;;;;;18.70;97.40;;;;;;5012478;28;19906;-23
2022/10/06 11:58:49;;;;;;;;;;;18.70;97.40;;;;;;5012437;28;19909;-23
2022/10/06 12:01:26;;;;;;;;;;;18.70;97.30;;;;;;5012430;28;19906;-23
2022/10/06 12:04:04;;;;;;;;;;;18.80;97.30;;;;;;5012311;28;19960;-23
2022/10/06 12:06:50;;;;;;;;;;;18.70;97.30;;;;;;5012362;28;20307;-23
2022/10/06 12:09:24;;;;;;;;;;;18.70;97.30;;;;;;5011932;28;19906;-23
2022/10/06 12:11:51;;;;;;;;;;;18.70;97.40;;;;;;5012191;28;20264;-23
2022/10/06 12:14:32;;;;;;;;;;;18.60;97.40;;;;;;5012075;28;19913;-23
2022/10/06 12:17:23;;;;;;;;;;;18.60;97.50;;;;;;5012218;28;20012;-24
2022/10/06 12:19:55;;;;;;;;;;;18.60;97.60;;;;;;5003477;28;19996;-24
2022/10/06 12:22:25;;;;;;;;;;;18.60;97.50;;;;;;5012017;28;19913;-23
2022/10/06 12:25:09;;;;;;;;;;;18.60;97.50;;;;;;5011954;28;19957;-23
2022/10/06 12:28:01;;;;;;;;;;;18.60;97.50;;;;;;5012153;28;20279;-23
2022/10/06 12:30:44;;;;;;;;;;;18.60;97.60;;;;;;5012102;28;19988;-24
2022/10/06 12:33:17;;;;;;;;;;;18.60;97.60;;;;;;5011933;28;19963;-23
2022/10/06 12:35:44;;;;;;;;;;;18.50;97.90;;;;;;5012090;28;20036;-23
2022/10/06 12:38:28;;;;;;;;;;;18.50;97.60;;;;;;5012078;28;20363;-23
2022/10/06 12:40:54;;;;;;;;;;;18.50;97.70;;;;;;5011835;28;20387;-23
2022/10/06 12:43:24;;;;;;;;;;;18.40;97.70;;;;;;5013471;28;19905;-23
2022/10/06 12:46:01;;;;;;;;;;;18.40;97.70;;;;;;5015984;28;20397;-23
2022/10/06 12:48:44;;;;;;;;;;;18.40;97.70;;;;;;5015926;28;19944;-23
2022/10/06 12:51:12;;;;;;;;;;;18.40;97.70;;;;;;5015755;28;19960;-23
2022/10/06 12:53:49;;;;;;;;;;;18.40;97.80;;;;;;5015848;28;19905;-23
2022/10/06 12:56:44;;;;;;;;;;;18.30;97.80;;;;;;5014745;28;19912;-24
2022/10/06 12:59:38;;;;;;;;;;;18.30;97.80;;;;;;5011093;28;19933;-23
2022/10/06 13:02:07;;;;;;;;;;;18.30;97.90;;;;;;5014978;28;19971;-23
2022/10/06 13:04:34;;;;;;;;;;;18.30;97.90;;;;;;5015622;28;19916;-23
2022/10/06 13:07:19;;;;;;;;;;;18.20;97.90;;;;;;5017185;28;20347;-23
2022/10/06 13:09:46;;;;;;;;;;;18.20;98.00;;;;;;5016176;28;20279;-23
2022/10/06 13:12:21;;;;;;;;;;;18.20;98.00;;;;;;5015988;28;19913;-23
2022/10/06 13:14:47;;;;;;;;;;;18.20;98.10;;;;;;5015793;28;19955;-23
2022/10/06 13:17:12;;;;;;;;;;;18.20;98.10;;;;;;5015729;28;19905;-23
2022/10/06 13:19:41;;;;;;;;;;;18.20;98.10;;;;;;5015807;28;20371;-23
2022/10/06 13:22:09;;;;;;;;;;;18.10;98.10;;;;;;5015210;28;19916;-23
2022/10/06 13:24:35;;;;;;;;;;;18.20;98.10;;;;;;5015136;28;19919;-23
2022/10/06 13:27:01;;;;;;;;;;;18.20;98.10;;;;;;5015286;28;20004;-23
2022/10/06 13:29:27;;;;;;;;;;;18.20;98.10;;;;;;5015135;28;19996;-23
2022/10/06 13:31:54;;;;;;;;;;;18.20;98.10;;;;;;5015214;28;20024;-23
2022/10/06 13:34:19;;;;;;;;;;;18.20;98.10;;;;;;5015034;28;20371;-23
2022/10/06 13:36:47;;;;;;;;;;;18.20;98.10;;;;;;5014961;28;19941;-23
2022/10/06 13:39:17;;;;;;;;;;;18.20;98.10;;;;;;5014925;28;19906;-23
2022/10/06 13:41:44;;;;;;;;;;;18.20;98.10;;;;;;5015074;28;19912;-23
2022/10/06 13:44:10;;;;;;;;;;;18.20;98.10;;;;;;5014711;28;19909;-23
2022/10/06 13:46:41;;;;;;;;;;;18.20;98.20;;;;;;5014845;28;20441;-23
2022/10/06 13:49:29;;;;;;;;;;;18.20;98.10;;;;;;5015030;28;19905;-23
2022/10/06 13:51:56;;;;;;;;;;;18.20;98.10;;;;;;5011761;28;19912;-23
2022/10/06 13:54:39;;;;;;;;;;;18.20;98.10;;;;;;5013998;28;19909;-23
2022/10/06 13:57:24;;;;;;;;;;;18.20;98.10;;;;;;5014756;28;19905;-23
2022/10/06 14:00:14;;;;;;;;;;;18.20;98.10;;;;;;5014458;28;19906;-23
2022/10/06 14:02:40;;;;;;;;;;;18.20;98.10;;;;;;5014556;28;19928;-23
2022/10/06 14:05:21;;;;;;;;;;;18.20;98.20;;;;;;5014456;28;19910;-23
2022/10/06 14:07:48;;;;;;;;;;;18.20;98.10;;;;;;5014399;28;19928;-23
2022/10/06 14:10:25;;;;;;;;;;;18.20;98.10;;;;;;5014166;28;19967;-23
2022/10/06 14:12:51;;;;;;;;;;;18.20;98.50;;;;;;5014355;28;19913;-23
2022/10/06 14:15:21;;;;;;;;;;;18.20;98.10;;;;;;5014497;28;19913;-23
2022/10/06 14:18:01;;;;;;;;;;;18.20;98.10;;;;;;5014270;28;19910;-23
2022/10/06 14:20:44;;;;;;;;;;;18.20;98.10;;;;;;5014228;28;19906;-23
2022/10/06 14:23:29;;;;;;;;;;;18.30;98.10;;;;;;5013979;28;20000;-23
2022/10/06 14:25:55;;;;;;;;;;;18.30;98.10;;;;;;5014348;28;19909;-23
2022/10/06 14:28:20;;;;;;;;;;;18.30;98.00;;;;;;5014361;28;19912;-23
2022/10/06 14:30:46;;;;;;;;;;;18.30;98.00;;;;;;5014417;28;20148;-23
2022/10/06 14:33:11;;;;;;;;;;;18.30;98.00;;;;;;5014034;28;20453;-23
2022/10/06 14:35:37;;;;;;;;;;;18.30;98.00;;;;;;5014285;28;19953;-23
2022/10/06 14:38:02;;;;;;;;;;;18.40;98.00;;;;;;5014109;28;19937;-23
2022/10/06 14:40:28;;;;;;;;;;;18.40;98.00;;;;;;5013849;28;19905;-23
2022/10/06 14:42:53;;;;;;;;;;;18.40;98.00;;;;;;5012265;28;20306;-24
2022/10/06 14:45:19;;;;;;;;;;;18.40;97.90;;;;;;5013819;28;19921;-24